Time;durP1;ratioP1;P1;durP2;ratioP2;P2;SDS_P1;SDS_P2;PMS_P1;PMS_P2;Temp;Humidity;BMP_temperature;BMP_pressure;BME280_temperature;BME280_humidity;BME280_pressure;Samples;Min_cycle;Max_cycle;Signal;HPM_P1;HPM_P2
2023/02/11 00:00:13;;;;;;;58.03;31.50;;;2.20;99.90;;;;;;5028140;28;20489;-53
2023/02/11 00:02:38;;;;;;;52.13;31.33;;;2.30;99.90;;;;;;5027855;28;20029;-58
2023/02/11 00:05:04;;;;;;;59.92;30.80;;;2.20;99.90;;;;;;5027812;28;20055;-59
2023/02/11 00:07:34;;;;;;;60.75;32.28;;;2.30;99.90;;;;;;5028012;28;20025;-56
2023/02/11 00:10:01;;;;;;;59.10;32.70;;;2.30;99.90;;;;;;5028637;28;20025;-55
2023/02/11 00:12:27;;;;;;;54.75;31.98;;;2.30;99.90;;;;;;5028390;28;20037;-59
2023/02/11 00:14:53;;;;;;;52.58;30.65;;;2.30;99.90;;;;;;5026948;28;20029;-61
2023/02/11 00:17:18;;;;;;;55.72;33.63;;;2.30;99.90;;;;;;5010703;28;20032;-59
2023/02/11 00:19:44;;;;;;;64.57;33.22;;;2.30;99.90;;;;;;5010991;28;20432;-57
2023/02/11 00:22:09;;;;;;;52.55;33.15;;;2.30;99.90;;;;;;5028762;28;20539;-59
2023/02/11 00:24:35;;;;;;;52.90;32.00;;;2.20;99.90;;;;;;5028321;28;20079;-56
2023/02/11 00:27:01;;;;;;;57.67;32.45;;;2.20;99.90;;;;;;5029868;28;20397;-59
2023/02/11 00:29:27;;;;;;;60.20;32.67;;;2.20;99.90;;;;;;5030319;28;20026;-53
2023/02/11 00:31:52;;;;;;;62.83;32.90;;;2.20;99.90;;;;;;5030688;28;20238;-52
2023/02/11 00:34:18;;;;;;;63.40;35.08;;;2.10;99.90;;;;;;5031068;28;20034;-59
2023/02/11 00:36:43;;;;;;;57.40;33.60;;;2.20;99.90;;;;;;5013709;28;20029;-59
2023/02/11 00:39:09;;;;;;;51.70;30.77;;;2.20;99.90;;;;;;5031504;28;20025;-58
2023/02/11 00:41:35;;;;;;;53.63;32.10;;;2.10;99.90;;;;;;5044478;23;20042;-51
2023/02/11 00:44:01;;;;;;;56.63;30.98;;;2.20;99.90;;;;;;5031226;28;20042;-54
2023/02/11 00:46:27;;;;;;;57.83;31.83;;;2.10;99.90;;;;;;5017789;28;20386;-49
2023/02/11 00:48:56;;;;;;;65.90;34.22;;;2.10;99.90;;;;;;5035679;28;20021;-50
2023/02/11 00:51:22;;;;;;;66.45;37.35;;;2.10;99.90;;;;;;5035189;28;20163;-53
2023/02/11 00:53:48;;;;;;;87.40;49.28;;;2.10;99.90;;;;;;5034863;28;20515;-50
2023/02/11 00:56:13;;;;;;;71.82;38.60;;;2.00;99.90;;;;;;5035229;28;20056;-54
2023/02/11 00:58:39;;;;;;;52.28;31.50;;;2.10;99.90;;;;;;5017260;28;20026;-52
2023/02/11 01:01:05;;;;;;;55.70;32.25;;;2.10;99.90;;;;;;5035033;28;20413;-56
2023/02/11 01:03:31;;;;;;;54.55;31.85;;;2.10;99.90;;;;;;5034753;28;20029;-52
2023/02/11 01:05:56;;;;;;;63.92;32.38;;;2.20;99.90;;;;;;5017309;28;20021;-54
2023/02/11 01:08:22;;;;;;;53.85;30.75;;;2.30;99.90;;;;;;5034943;28;20097;-54
2023/02/11 01:10:59;;;;;;;50.83;31.13;;;2.30;99.90;;;;;;5034943;28;20100;-56
2023/02/11 01:13:26;;;;;;;55.72;31.55;;;2.30;99.90;;;;;;5016880;28;20496;-53
2023/02/11 01:15:51;;;;;;;54.95;29.95;;;2.30;99.90;;;;;;5017054;28;20036;-55
2023/02/11 01:18:17;;;;;;;55.70;31.70;;;2.30;99.90;;;;;;5034773;28;20029;-56
2023/02/11 01:20:43;;;;;;;59.75;32.33;;;2.30;99.90;;;;;;5034820;28;20112;-55
2023/02/11 01:23:08;;;;;;;57.63;33.17;;;2.30;99.90;;;;;;5034320;28;20054;-53
2023/02/11 01:25:34;;;;;;;53.05;31.85;;;2.40;99.90;;;;;;5034141;28;20511;-54
2023/02/11 01:27:59;;;;;;;62.30;31.63;;;2.40;99.90;;;;;;5034578;28;20030;-55
2023/02/11 01:30:25;;;;;;;57.78;32.85;;;2.40;99.90;;;;;;5016791;28;20026;-51
2023/02/11 01:32:50;;;;;;;53.40;32.42;;;2.40;99.90;;;;;;5034231;28;20131;-52
2023/02/11 01:35:16;;;;;;;56.60;32.13;;;2.30;99.90;;;;;;5034384;28;20033;-58
2023/02/11 01:37:41;;;;;;;63.63;32.03;;;2.30;99.90;;;;;;5016710;28;20026;-55
2023/02/11 01:40:13;;;;;;;50.60;32.55;;;2.40;99.90;;;;;;5034379;28;20063;-55
2023/02/11 01:42:38;;;;;;;51.75;30.45;;;2.40;99.90;;;;;;5034104;28;20123;-56
2023/02/11 01:45:42;;;;;;;54.33;31.50;;;2.40;99.90;;;;;;5033926;28;20057;-56
2023/02/11 01:48:12;;;;;;;57.30;31.77;;;2.40;99.90;;;;;;5034200;28;20022;-51
2023/02/11 01:50:39;;;;;;;55.38;30.65;;;2.40;99.90;;;;;;5034130;28;20055;-54
2023/02/11 01:58:44;;;;;;;52.15;32.20;;;2.40;99.90;;;;;;5034113;28;20032;-53
2023/02/11 02:01:14;;;;;;;51.33;30.75;;;2.40;99.90;;;;;;5033940;28;20034;-52
2023/02/11 02:03:42;;;;;;;56.15;32.45;;;2.40;99.90;;;;;;5033678;28;20034;-56
2023/02/11 02:06:18;;;;;;;49.15;31.65;;;2.50;99.90;;;;;;5033672;28;20018;-52
2023/02/11 02:08:51;;;;;;;;;;;2.50;99.90;;;;;;5034333;28;20025;-54
2023/02/11 02:11:17;;;;;;;53.38;30.55;;;2.50;99.90;;;;;;5033722;28;19909;-52
2023/02/11 02:13:44;;;;;;;53.47;29.40;;;2.50;99.90;;;;;;5033864;28;20030;-54
2023/02/11 02:16:16;;;;;;;54.58;32.63;;;2.50;99.90;;;;;;5033643;28;20041;-54
2023/02/11 02:19:12;;;;;;;51.90;30.25;;;2.50;99.90;;;;;;5033672;28;20040;-54
2023/02/11 02:22:18;;;;;;;52.05;30.80;;;2.50;99.90;;;;;;5033478;28;20056;-51
2023/02/11 02:24:47;;;;;;;53.42;30.63;;;2.50;99.90;;;;;;5033466;28;20036;-55
2023/02/11 02:27:12;;;;;;;48.30;28.98;;;2.50;99.90;;;;;;5015454;28;20061;-55
2023/02/11 02:29:53;;;;;;;56.40;28.63;;;2.40;99.90;;;;;;5033349;28;20444;-55
2023/02/11 02:32:25;;;;;;;48.85;29.25;;;2.50;99.90;;;;;;5033312;28;20021;-54
2023/02/11 02:35:03;;;;;;;55.08;29.08;;;2.50;99.90;;;;;;5015387;28;20029;-56
2023/02/11 02:37:56;;;;;;;57.80;30.08;;;2.60;99.90;;;;;;5033371;28;20448;-56
2023/02/11 02:40:30;;;;;;;49.90;29.17;;;2.60;99.90;;;;;;5032778;28;20120;-52
2023/02/11 02:42:57;;;;;;;51.80;31.08;;;2.60;99.90;;;;;;5032967;28;20515;-51
2023/02/11 02:45:23;;;;;;;52.30;30.38;;;2.60;99.90;;;;;;5015241;28;20030;-57
2023/02/11 02:47:48;;;;;;;50.63;28.33;;;2.60;99.90;;;;;;5033048;28;20092;-57
2023/02/11 02:50:18;;;;;;;51.83;29.25;;;2.60;99.90;;;;;;5033058;28;20024;-53
2023/02/11 02:52:52;;;;;;;53.10;29.73;;;2.60;99.90;;;;;;5032545;28;20124;-48
2023/02/11 02:55:49;;;;;;;52.53;28.40;;;2.60;99.90;;;;;;5015204;28;20067;-54
2023/02/11 02:58:44;;;;;;;47.83;29.30;;;2.60;99.90;;;;;;5019557;28;20068;-55
2023/02/11 03:01:38;;;;;;;47.88;28.15;;;2.60;99.90;;;;;;5014919;28;20030;-55
2023/02/11 03:04:21;;;;;;;48.92;28.10;;;2.50;99.90;;;;;;5032477;28;20029;-48
2023/02/11 03:07:11;;;;;;;50.75;28.17;;;2.60;99.90;;;;;;5032762;28;20358;-52
2023/02/11 03:10:07;;;;;;;49.72;28.42;;;2.60;99.90;;;;;;5032688;28;20103;-53
2023/02/11 03:12:35;;;;;;;50.50;29.13;;;2.60;99.90;;;;;;5024257;28;20056;-51
2023/02/11 03:15:02;;;;;;;51.50;28.33;;;2.70;99.90;;;;;;5032326;28;20103;-54
2023/02/11 03:17:31;;;;;;;49.35;27.35;;;2.70;99.90;;;;;;5032918;28;20032;-57
2023/02/11 03:19:58;;;;;;;44.17;27.70;;;2.60;99.90;;;;;;5014688;28;20026;-56
2023/02/11 03:22:33;;;;;;;47.22;27.60;;;2.60;99.90;;;;;;5014706;28;20025;-55
2023/02/11 03:25:00;;;;;;;44.67;27.52;;;2.60;99.90;;;;;;5032145;28;20052;-52
2023/02/11 03:27:42;;;;;;;48.55;29.75;;;2.60;99.90;;;;;;5032003;28;20049;-55
2023/02/11 03:30:17;;;;;;;49.97;27.38;;;2.60;99.90;;;;;;5014678;28;20428;-52
2023/02/11 03:32:52;;;;;;;50.22;29.10;;;2.60;99.90;;;;;;5032012;28;20025;-59
2023/02/11 03:35:25;;;;;;;46.05;28.00;;;2.60;99.90;;;;;;5032090;28;20080;-51
2023/02/11 03:37:58;;;;;;;49.13;28.02;;;2.60;99.90;;;;;;5014360;28;20037;-52
2023/02/11 03:40:38;;;;;;;45.03;28.38;;;2.60;99.90;;;;;;5032217;28;20017;-51
2023/02/11 03:43:16;;;;;;;49.00;28.35;;;2.60;99.90;;;;;;5031667;28;20068;-54
2023/02/11 03:45:44;;;;;;;54.25;28.95;;;2.50;99.90;;;;;;5031813;28;20465;-53
2023/02/11 03:48:39;;;;;;;48.28;28.10;;;2.60;99.90;;;;;;5032078;28;20021;-53
2023/02/11 03:51:08;;;;;;;50.33;28.75;;;2.60;99.90;;;;;;5031072;28;20112;-52
2023/02/11 03:53:36;;;;;;;51.22;28.98;;;2.60;99.90;;;;;;5031884;28;20032;-54
2023/02/11 03:56:06;;;;;;;52.70;27.92;;;2.60;99.90;;;;;;5014961;28;20036;-57
2023/02/11 03:58:32;;;;;;;48.85;27.67;;;2.60;99.90;;;;;;5031759;28;20029;-52
2023/02/11 04:00:57;;;;;;;48.78;26.35;;;2.60;99.90;;;;;;5031575;28;20025;-57
2023/02/11 04:03:22;;;;;;;47.30;25.88;;;2.50;99.90;;;;;;5031371;28;20087;-52
2023/02/11 04:05:48;;;;;;;49.38;27.98;;;2.50;99.90;;;;;;5031717;28;20025;-54
2023/02/11 04:08:14;;;;;;;51.22;28.90;;;2.50;99.90;;;;;;5031756;28;20543;-55
2023/02/11 04:10:39;;;;;;;47.60;26.90;;;2.40;99.90;;;;;;5031579;28;20478;-57
2023/02/11 04:13:05;;;;;;;48.53;27.95;;;2.40;99.90;;;;;;5031466;28;20025;-58
2023/02/11 04:15:31;;;;;;;45.67;27.02;;;2.40;99.90;;;;;;5031406;28;20493;-54
2023/02/11 04:17:56;;;;;;;47.88;27.35;;;2.30;99.90;;;;;;5031547;28;20101;-54
2023/02/11 04:20:22;;;;;;;46.92;26.05;;;2.30;99.90;;;;;;5013453;28;20026;-53
2023/02/11 04:22:47;;;;;;;46.53;26.35;;;2.30;99.90;;;;;;5013697;28;20096;-57
2023/02/11 04:25:13;;;;;;;41.25;25.58;;;2.30;99.90;;;;;;5013587;28;20021;-57
2023/02/11 04:27:38;;;;;;;45.08;26.77;;;2.30;99.90;;;;;;5031039;28;20049;-55
2023/02/11 04:30:05;;;;;;;46.03;26.92;;;2.40;99.90;;;;;;5013644;28;20029;-53
2023/02/11 04:32:31;;;;;;;51.47;26.95;;;2.40;99.90;;;;;;5031350;28;20430;-54
2023/02/11 04:34:56;;;;;;;46.67;25.88;;;2.40;99.90;;;;;;5013706;28;20053;-55
2023/02/11 04:37:22;;;;;;;50.03;27.15;;;2.40;99.90;;;;;;5013586;28;20029;-56
2023/02/11 04:39:47;;;;;;;50.63;26.33;;;2.40;99.90;;;;;;5031398;28;20092;-55
2023/02/11 04:42:13;;;;;;;48.38;27.42;;;2.40;99.90;;;;;;5031004;28;20575;-55
2023/02/11 04:44:38;;;;;;;53.10;29.08;;;2.40;99.90;;;;;;5013170;28;20029;-56
2023/02/11 04:47:04;;;;;;;46.10;27.13;;;2.40;99.90;;;;;;5031262;28;20018;-55
2023/02/11 04:49:30;;;;;;;42.47;25.55;;;2.40;99.90;;;;;;5031228;28;20489;-57
2023/02/11 04:51:55;;;;;;;46.53;26.30;;;2.50;99.90;;;;;;5031071;28;20021;-60
2023/02/11 04:54:21;;;;;;;44.55;25.67;;;2.50;99.90;;;;;;5030908;28;20060;-53
2023/02/11 04:56:48;;;;;;;45.45;27.67;;;2.60;99.90;;;;;;5013239;28;20025;-56
2023/02/11 04:59:14;;;;;;;49.25;27.83;;;2.60;99.90;;;;;;5013273;28;20033;-53
2023/02/11 05:01:39;;;;;;;42.70;25.63;;;2.60;99.90;;;;;;5030945;28;20037;-57
2023/02/11 05:04:05;;;;;;;42.00;25.85;;;2.60;99.90;;;;;;5030709;28;20100;-55
2023/02/11 05:06:30;;;;;;;45.83;26.33;;;2.60;99.90;;;;;;5013426;28;20017;-51
2023/02/11 05:08:56;;;;;;;45.03;26.30;;;2.60;99.90;;;;;;5031050;28;20485;-56
2023/02/11 05:11:23;;;;;;;44.80;25.80;;;2.50;99.90;;;;;;5030940;28;20029;-54
2023/02/11 05:13:49;;;;;;;58.53;27.60;;;2.50;99.90;;;;;;5030804;28;20033;-58
2023/02/11 05:16:16;;;;;;;45.28;27.50;;;2.50;99.90;;;;;;5031219;28;20026;-54
2023/02/11 05:18:42;;;;;;;54.03;28.38;;;2.50;99.90;;;;;;5013225;28;20071;-56
2023/02/11 05:21:10;;;;;;;46.10;28.15;;;2.50;99.90;;;;;;5030908;28;20078;-52
2023/02/11 05:23:37;;;;;;;45.90;26.63;;;2.50;99.90;;;;;;5012886;28;20037;-51
2023/02/11 05:26:02;;;;;;;43.75;27.10;;;2.50;99.90;;;;;;5030463;28;20021;-58
2023/02/11 05:28:28;;;;;;;40.17;25.02;;;2.60;99.90;;;;;;5030847;28;20033;-54
2023/02/11 05:30:54;;;;;;;43.92;26.48;;;2.50;99.90;;;;;;5031254;28;20053;-51
2023/02/11 05:33:19;;;;;;;48.65;27.58;;;2.50;99.90;;;;;;5016641;28;20068;-54
2023/02/11 05:35:45;;;;;;;41.08;23.98;;;2.50;99.90;;;;;;5034169;28;20378;-56
2023/02/11 05:38:10;;;;;;;41.05;26.27;;;2.40;99.90;;;;;;5034398;28;20083;-56
2023/02/11 05:40:36;;;;;;;41.97;25.33;;;2.50;99.90;;;;;;5016652;28;20025;-53
2023/02/11 05:43:02;;;;;;;47.65;26.38;;;2.40;99.90;;;;;;5016236;28;20547;-56
2023/02/11 05:45:27;;;;;;;44.10;27.25;;;2.50;99.90;;;;;;5016575;28;20384;-58
2023/02/11 05:47:53;;;;;;;46.33;25.95;;;2.60;99.90;;;;;;5034288;28;20022;-53
2023/02/11 05:50:19;;;;;;;50.78;27.95;;;2.50;99.90;;;;;;5034238;28;20032;-54
2023/02/11 05:52:44;;;;;;;43.53;26.00;;;2.50;99.90;;;;;;5033964;28;20029;-52
2023/02/11 05:55:10;;;;;;;44.65;26.08;;;2.60;99.90;;;;;;5016187;28;20060;-50
2023/02/11 05:57:35;;;;;;;44.72;25.98;;;2.50;99.90;;;;;;5016130;28;20401;-52
2023/02/11 06:00:01;;;;;;;47.20;28.30;;;2.50;99.90;;;;;;5034527;28;20025;-53
2023/02/11 06:02:27;;;;;;;47.88;25.75;;;2.60;99.90;;;;;;5033905;28;20022;-54
2023/02/11 06:04:52;;;;;;;49.83;27.33;;;2.60;99.90;;;;;;5033635;28;20037;-53
2023/02/11 06:07:18;;;;;;;43.28;25.55;;;2.50;99.90;;;;;;5033943;28;20033;-59
2023/02/11 06:09:44;;;;;;;46.22;27.25;;;2.50;99.90;;;;;;5033980;28;20029;-53
2023/02/11 06:12:10;;;;;;;46.45;26.48;;;2.60;99.90;;;;;;5033918;28;20037;-54
2023/02/11 06:14:35;;;;;;;43.60;26.65;;;2.60;99.90;;;;;;5016009;28;20033;-52
2023/02/11 06:17:01;;;;;;;45.33;26.60;;;2.60;99.90;;;;;;5033889;28;20068;-53
2023/02/11 06:19:27;;;;;;;48.03;28.20;;;2.60;99.90;;;;;;5033747;28;20100;-54
2023/02/11 06:21:52;;;;;;;46.67;27.55;;;2.60;99.90;;;;;;5033651;28;20035;-53
2023/02/11 06:24:18;;;;;;;45.30;26.42;;;2.60;99.90;;;;;;5033349;28;20040;-52
2023/02/11 06:26:44;;;;;;;45.17;27.50;;;2.60;99.90;;;;;;5033260;28;20029;-55
2023/02/11 06:29:09;;;;;;;44.78;25.45;;;2.60;99.90;;;;;;5033507;28;20030;-54
2023/02/11 06:31:36;;;;;;;45.63;27.83;;;2.60;99.90;;;;;;5033289;28;20140;-55
2023/02/11 06:34:02;;;;;;;48.72;26.95;;;2.60;99.90;;;;;;5015313;28;20067;-55
2023/02/11 06:36:27;;;;;;;49.13;28.38;;;2.60;99.90;;;;;;5033528;28;20491;-56
2023/02/11 06:38:54;;;;;;;42.85;25.73;;;2.60;99.90;;;;;;5033355;28;20033;-54
2023/02/11 06:41:19;;;;;;;46.88;27.85;;;2.60;99.90;;;;;;5032965;28;20091;-57
2023/02/11 06:43:45;;;;;;;46.30;26.98;;;2.60;99.90;;;;;;5071546;23;20456;-58
2023/02/11 06:46:11;;;;;;;40.78;26.08;;;2.60;99.90;;;;;;5052616;28;20032;-60
2023/02/11 06:48:37;;;;;;;41.63;25.33;;;2.60;99.90;;;;;;5053192;28;20029;-58
2023/02/11 06:51:04;;;;;;;49.10;28.30;;;2.60;99.90;;;;;;5053155;28;20036;-58
2023/02/11 06:53:42;;;;;;;45.47;26.73;;;2.60;99.90;;;;;;5052820;28;20087;-60
2023/02/11 06:56:10;;;;;;;45.08;27.10;;;2.60;99.90;;;;;;5053028;28;20285;-58
2023/02/11 06:58:36;;;;;;;55.13;27.73;;;2.60;99.90;;;;;;5035113;28;20480;-58
2023/02/11 07:01:07;;;;;;;43.92;27.73;;;2.60;99.90;;;;;;5034944;28;20051;-59
2023/02/11 07:03:35;;;;;;;49.20;27.85;;;2.50;99.90;;;;;;5034709;28;20025;-60
2023/02/11 07:06:04;;;;;;;41.97;26.95;;;2.50;99.90;;;;;;5052681;28;20387;-57
2023/02/11 07:08:34;;;;;;;51.88;28.20;;;2.40;99.90;;;;;;5052854;28;20095;-57
2023/02/11 07:11:00;;;;;;;48.05;29.05;;;2.50;99.90;;;;;;5052812;28;20116;-60
2023/02/11 07:13:26;;;;;;;42.35;26.80;;;2.50;99.90;;;;;;5052478;28;20052;-60
2023/02/11 07:15:51;;;;;;;49.83;27.20;;;2.60;99.90;;;;;;5052794;28;20036;-51
2023/02/11 07:18:17;;;;;;;48.75;27.83;;;2.60;99.90;;;;;;5052751;28;20096;-56
2023/02/11 07:20:43;;;;;;;45.40;27.92;;;2.70;99.90;;;;;;5052661;28;20024;-58
2023/02/11 07:23:08;;;;;;;50.38;28.48;;;2.70;99.90;;;;;;5052133;28;20060;-58
2023/02/11 07:25:35;;;;;;;46.22;27.55;;;2.70;99.90;;;;;;5051785;28;20457;-55
2023/02/11 07:28:00;;;;;;;50.17;29.45;;;2.80;99.90;;;;;;5052351;28;20029;-56
2023/02/11 07:30:26;;;;;;;48.90;27.10;;;2.80;99.90;;;;;;5034486;28;20162;-56
2023/02/11 07:32:52;;;;;;;46.50;27.75;;;2.80;99.90;;;;;;5052058;28;20017;-55
2023/02/11 07:35:18;;;;;;;52.55;29.65;;;2.80;99.90;;;;;;5052166;28;20527;-56
2023/02/11 07:37:44;;;;;;;47.67;27.60;;;2.80;99.90;;;;;;5052105;28;20029;-60
2023/02/11 07:40:10;;;;;;;51.75;28.80;;;2.70;99.90;;;;;;5034145;28;20024;-57
2023/02/11 07:42:35;;;;;;;46.50;28.80;;;2.70;99.90;;;;;;5051933;28;20455;-57
2023/02/11 07:45:01;;;;;;;44.78;27.95;;;2.60;99.90;;;;;;5051856;28;20385;-54
2023/02/11 07:47:26;;;;;;;45.30;29.08;;;2.70;99.90;;;;;;5034162;28;20075;-59
2023/02/11 07:49:52;;;;;;;53.88;30.42;;;2.70;99.90;;;;;;5052039;28;20025;-57
2023/02/11 07:52:17;;;;;;;46.78;28.73;;;2.70;99.90;;;;;;5034007;28;20025;-58
2023/02/11 07:54:43;;;;;;;44.83;27.85;;;2.80;99.90;;;;;;5050821;28;20017;-57
2023/02/11 07:57:09;;;;;;;52.65;30.55;;;2.80;99.90;;;;;;5052283;28;20029;-58
2023/02/11 07:59:34;;;;;;;48.53;27.02;;;2.90;99.90;;;;;;5033934;28;20166;-58
2023/02/11 08:02:00;;;;;;;47.38;29.95;;;3.00;99.90;;;;;;5033708;28;20048;-57
2023/02/11 08:04:25;;;;;;;48.17;30.08;;;3.10;99.90;;;;;;5051335;28;20025;-57
2023/02/11 08:06:53;;;;;;;50.28;30.20;;;3.00;99.90;;;;;;5051625;28;20021;-57
2023/02/11 08:09:18;;;;;;;47.55;29.10;;;3.10;99.90;;;;;;5051463;28;20507;-57
2023/02/11 08:11:44;;;;;;;53.08;28.73;;;3.20;99.90;;;;;;5051368;28;20025;-55
2023/02/11 08:14:11;;;;;;;43.20;27.80;;;3.30;99.90;;;;;;5051195;28;20451;-57
2023/02/11 08:16:37;;;;;;;48.25;28.05;;;3.40;99.90;;;;;;5051509;28;20029;-55
2023/02/11 08:19:06;;;;;;;46.20;27.38;;;3.50;99.90;;;;;;5051922;28;20498;-60
2023/02/11 08:21:32;;;;;;;44.92;27.00;;;3.70;99.90;;;;;;5033778;28;20024;-57
2023/02/11 08:23:57;;;;;;;51.92;28.42;;;3.80;99.90;;;;;;5051102;28;20100;-60
2023/02/11 08:26:30;;;;;;;47.90;29.48;;;4.00;99.90;;;;;;5051155;28;20029;-58
2023/02/11 08:28:57;;;;;;;50.83;28.02;;;4.00;99.90;;;;;;5051738;28;20407;-60
2023/02/11 08:31:25;;;;;;;49.42;29.08;;;4.00;99.90;;;;;;5051651;28;20028;-57
2023/02/11 08:33:52;;;;;;;46.53;29.00;;;4.00;99.90;;;;;;5051083;28;20033;-56
2023/02/11 08:36:20;;;;;;;44.72;27.50;;;4.00;99.90;;;;;;5051338;28;20035;-57
2023/02/11 08:38:46;;;;;;;44.97;27.17;;;4.10;99.90;;;;;;5051290;28;20161;-59
2023/02/11 08:41:15;;;;;;;46.03;26.20;;;4.20;99.90;;;;;;5033435;28;20025;-58
2023/02/11 08:43:41;;;;;;;44.50;27.08;;;4.30;99.90;;;;;;5051377;28;20511;-57
2023/02/11 08:46:16;;;;;;;44.13;26.33;;;4.30;99.90;;;;;;5033342;28;20029;-58
2023/02/11 08:48:42;;;;;;;40.40;25.25;;;4.40;99.90;;;;;;5051317;28;20492;-57
2023/02/11 08:51:11;;;;;;;43.95;25.55;;;4.50;99.90;;;;;;5051094;28;20029;-56
2023/02/11 08:53:37;;;;;;;43.38;26.05;;;4.60;99.90;;;;;;5050979;28;20120;-56
2023/02/11 08:56:03;;;;;;;45.10;27.25;;;4.70;99.90;;;;;;5051139;28;20112;-53
2023/02/11 08:58:29;;;;;;;44.28;28.27;;;4.80;99.90;;;;;;5051065;28;20083;-57
2023/02/11 09:00:54;;;;;;;45.85;26.27;;;4.90;99.90;;;;;;5051110;28;20078;-52
2023/02/11 09:03:20;;;;;;;40.85;26.10;;;4.90;99.90;;;;;;5050737;28;20032;-53
2023/02/11 09:05:48;;;;;;;43.38;27.02;;;5.00;99.90;;;;;;5052760;28;20159;-56
2023/02/11 09:08:15;;;;;;;40.65;27.15;;;4.90;99.90;;;;;;5046033;28;20021;-51
2023/02/11 09:10:41;;;;;;;41.88;25.88;;;4.90;99.90;;;;;;5050497;28;20025;-51
2023/02/11 09:13:07;;;;;;;42.70;26.10;;;4.90;99.90;;;;;;5034826;28;20313;-50
2023/02/11 09:15:33;;;;;;;38.35;24.58;;;5.00;99.90;;;;;;5036387;28;20065;-56
2023/02/11 09:17:59;;;;;;;40.88;25.42;;;5.10;99.90;;;;;;5036680;28;20110;-56
2023/02/11 09:20:27;;;;;;;40.63;25.80;;;5.20;99.90;;;;;;5053951;28;20032;-55
2023/02/11 09:22:53;;;;;;;43.08;25.13;;;5.40;99.90;;;;;;5033187;28;20429;-55
2023/02/11 09:25:19;;;;;;;38.55;24.60;;;5.60;99.90;;;;;;5034460;28;20108;-56
2023/02/11 09:27:45;;;;;;;37.67;23.80;;;6.10;99.90;;;;;;5034616;28;20492;-54
2023/02/11 09:30:11;;;;;;;38.40;24.17;;;6.60;99.90;;;;;;5034130;28;20037;-55
2023/02/11 09:32:36;;;;;;;33.70;23.45;;;7.10;99.90;;;;;;5042583;28;20032;-54
2023/02/11 09:35:02;;;;;;;40.17;25.45;;;7.40;99.90;;;;;;5054287;28;20029;-53
2023/02/11 09:37:27;;;;;;;38.92;26.20;;;7.40;99.90;;;;;;5054145;28;20112;-56
2023/02/11 09:39:53;;;;;;;38.35;24.30;;;7.50;99.90;;;;;;5054614;28;20032;-49
2023/02/11 09:42:32;;;;;;;35.83;24.88;;;7.50;99.90;;;;;;5053962;28;20036;-54
2023/02/11 09:45:00;;;;;;;39.10;24.65;;;7.30;99.90;;;;;;5054085;28;20103;-55
2023/02/11 09:47:32;;;;;;;37.83;23.60;;;7.30;99.90;;;;;;5054174;28;20108;-54
2023/02/11 09:50:12;;;;;;;42.30;25.67;;;7.30;99.90;;;;;;5054225;28;20091;-54
2023/02/11 09:52:59;;;;;;;41.38;25.52;;;7.20;99.90;;;;;;5053854;28;20033;-56
2023/02/11 09:55:36;;;;;;;42.47;25.63;;;7.20;99.90;;;;;;5053733;28;20033;-56
2023/02/11 09:58:06;;;;;;;42.92;26.00;;;7.20;99.90;;;;;;5054021;28;20122;-56
2023/02/11 10:00:38;;;;;;;36.97;25.27;;;7.20;99.90;;;;;;5053991;28;20056;-57
2023/02/11 10:03:13;;;;;;;38.15;25.10;;;7.20;99.90;;;;;;5053960;28;20025;-58
2023/02/11 10:06:00;;;;;;;39.78;25.02;;;7.20;99.90;;;;;;5053839;28;20068;-57
2023/02/11 10:08:55;;;;;;;42.70;28.17;;;7.20;99.90;;;;;;5053860;28;20503;-56
2023/02/11 10:11:29;;;;;;;41.70;26.55;;;7.20;99.90;;;;;;5053487;28;20407;-55
2023/02/11 10:14:07;;;;;;;41.10;27.50;;;7.10;99.90;;;;;;5053702;28;20029;-55
2023/02/11 10:16:44;;;;;;;41.00;25.65;;;6.90;99.90;;;;;;5035212;28;20082;-55
2023/02/11 10:19:18;;;;;;;41.67;26.52;;;6.70;99.90;;;;;;5053780;28;20036;-57
2023/02/11 10:22:04;;;;;;;38.10;25.35;;;6.70;99.90;;;;;;5052524;28;20108;-59
2023/02/11 10:24:30;;;;;;;41.55;25.50;;;6.60;99.90;;;;;;5032869;28;20043;-54
2023/02/11 10:26:56;;;;;;;41.97;26.23;;;6.60;99.90;;;;;;5034122;28;20017;-56
2023/02/11 10:29:42;;;;;;;39.97;24.33;;;6.40;99.90;;;;;;5053392;28;20031;-54
2023/02/11 10:32:19;;;;;;;;;;;6.40;99.90;;;;;;5052571;28;20035;-55
2023/02/11 10:34:44;;;;;;;;;;;6.50;99.90;;;;;;5053929;28;19904;-57
2023/02/11 10:37:13;;;;;;;42.47;24.80;;;6.50;99.90;;;;;;5053404;28;20004;-58
2023/02/11 10:39:40;;;;;;;44.58;26.25;;;6.60;99.90;;;;;;5053240;28;20026;-57
2023/02/11 10:42:11;;;;;;;44.67;24.67;;;6.70;99.90;;;;;;5053148;28;20036;-56
2023/02/11 10:44:45;;;;;;;43.35;26.17;;;6.80;99.90;;;;;;5035120;28;20033;-58
2023/02/11 10:47:17;;;;;;;38.42;25.80;;;6.90;99.90;;;;;;5053457;28;20017;-57
2023/02/11 10:49:44;;;;;;;41.38;27.08;;;6.90;99.90;;;;;;5050865;28;20024;-59
2023/02/11 10:52:21;;;;;;;37.15;24.88;;;6.90;99.90;;;;;;5024126;28;20040;-56
2023/02/11 10:55:00;;;;;;;39.95;26.42;;;7.00;99.90;;;;;;5034954;28;20415;-59
2023/02/11 10:57:32;;;;;;;43.08;26.10;;;7.10;99.90;;;;;;5016407;28;20048;-58
2023/02/11 11:00:04;;;;;;;39.38;24.50;;;7.00;99.90;;;;;;5051082;28;20029;-56
2023/02/11 11:02:34;;;;;;;39.42;24.17;;;7.00;99.90;;;;;;5030467;28;20034;-53
2023/02/11 11:05:14;;;;;;;41.28;23.52;;;7.00;99.90;;;;;;5042245;28;20080;-56
2023/02/11 11:07:54;;;;;;;40.55;24.63;;;7.00;99.90;;;;;;5044408;28;20072;-58
2023/02/11 11:10:44;;;;;;;37.25;22.95;;;;;;;;;;5033045;28;20025;-54
2023/02/11 11:13:34;;;;;;;36.35;23.35;;;7.10;99.90;;;;;;5052440;28;20017;-55
2023/02/11 11:16:11;;;;;;;35.05;22.20;;;7.10;99.90;;;;;;4996105;28;20530;-52
2023/02/11 11:18:37;;;;;;;36.47;22.45;;;7.10;99.90;;;;;;5032823;28;20025;-53
2023/02/11 11:21:13;;;;;;;33.22;20.77;;;7.10;99.90;;;;;;5038729;28;20051;-52
2023/02/11 11:23:39;;;;;;;33.35;20.17;;;7.20;99.90;;;;;;5046667;28;20489;-54
2023/02/11 11:26:13;;;;;;;34.72;21.85;;;7.10;99.90;;;;;;5041019;28;20025;-54
2023/02/11 11:29:06;;;;;;;38.92;22.02;;;7.00;99.90;;;;;;5033212;28;20021;-48
2023/02/11 11:31:46;;;;;;;35.28;21.20;;;7.00;99.90;;;;;;5052021;28;20029;-56
2023/02/11 11:34:27;;;;;;;35.47;20.73;;;7.00;99.90;;;;;;5014219;28;20025;-52
2023/02/11 11:36:55;;;;;;;32.55;20.80;;;7.10;99.90;;;;;;5032378;28;20033;-55
2023/02/11 11:39:30;;;;;;;36.03;22.58;;;7.20;99.90;;;;;;5032093;28;20021;-52
2023/02/11 11:41:57;;;;;;;31.10;20.77;;;7.20;99.90;;;;;;5032003;28;20037;-55
2023/02/11 11:44:28;;;;;;;34.67;21.15;;;7.20;99.90;;;;;;5031950;28;20030;-57
2023/02/11 11:47:14;;;;;;;36.55;21.83;;;7.30;99.90;;;;;;5048202;28;20104;-54
2023/02/11 11:49:58;;;;;;;37.17;22.33;;;7.30;99.90;;;;;;5052043;28;20021;-55
2023/02/11 11:52:59;;;;;;;35.28;21.98;;;7.30;99.90;;;;;;5051802;28;20116;-54
2023/02/11 11:55:55;;;;;;;36.35;21.83;;;7.30;99.90;;;;;;5013956;28;20044;-50
2023/02/11 11:58:22;;;;;;;37.47;21.63;;;7.30;99.90;;;;;;5052849;28;20032;-54
2023/02/11 12:00:57;;;;;;;39.45;22.45;;;;;;;;;;5041667;28;20026;-57
2023/02/11 12:03:43;;;;;;;33.95;21.08;;;;;;;;;;5032306;28;20253;-53
2023/02/11 12:06:09;;;;;;;;;;;;;;;;;;5032379;28;20018;-51
2023/02/11 12:08:35;;;;;;;36.60;21.50;;;;;;;;;;5032001;28;20000;-53
2023/02/11 12:11:01;;;;;;;31.70;20.63;;;;;;;;;;5032261;28;20080;-51
2023/02/11 12:13:48;;;;;;;30.98;20.98;;;;;;;;;;5031781;28;20017;-51
2023/02/11 12:16:33;;;;;;;37.33;22.00;;;;;;;;;;5031671;28;20045;-55
2023/02/11 12:19:18;;;;;;;35.95;20.15;;;;;;;;;;5031540;28;20020;-54
2023/02/11 12:21:43;;;;;;;38.08;21.63;;;;;;;;;;5031525;28;20104;-51
2023/02/11 12:24:36;;;;;;;33.97;20.73;;;;;;;;;;5031273;28;20563;-51
2023/02/11 12:27:09;;;;;;;33.00;22.10;;;;;;;;;;5012111;28;20060;-52
2023/02/11 12:29:54;;;;;;;43.28;22.05;;;;;;;;;;5048916;28;20040;-53
2023/02/11 12:32:32;;;;;;;40.50;22.65;;;;;;;;;;5041216;28;20277;-52
2023/02/11 12:35:07;;;;;;;37.35;22.50;;;;;;;;;;5013571;28;20132;-54
2023/02/11 12:37:58;;;;;;;38.97;21.17;;;;;;;;;;5033693;28;20047;-49
2023/02/11 12:40:33;;;;;;;34.28;20.10;;;;;;;;;;5032784;28;20655;-55
2023/02/11 12:43:17;;;;;;;32.30;21.17;;;;;;;;;;5048036;23;20041;-53
2023/02/11 12:46:01;;;;;;;30.95;20.65;;;;;;;;;;5015368;28;20120;-51
2023/02/11 12:48:40;;;;;;;31.55;19.90;;;;;;;;;;5015649;28;20551;-50
2023/02/11 12:51:19;;;;;;;35.75;20.90;;;;;;;;;;5007731;28;20056;-52
2023/02/11 12:53:48;;;;;;;31.75;20.55;;;;;;;;;;5035041;28;20040;-52
2023/02/11 12:56:17;;;;;;;32.60;20.27;;;;;;;;;;5033959;28;20057;-49
2023/02/11 12:58:44;;;;;;;33.80;19.92;;;;;;;;;;5015430;28;20448;-56
2023/02/11 13:01:21;;;;;;;33.85;20.90;;;;;;;;;;5014526;28;20096;-52
2023/02/11 13:03:52;;;;;;;30.52;19.67;;;;;;;;;;5028889;28;20045;-49
2023/02/11 13:06:22;;;;;;;33.80;20.00;;;;;;;;;;5035014;28;20025;-52